createdAt,value
2023-11-01T00:04:09.844Z,12.30
2023-11-01T00:09:11.472Z,10.07
2023-11-01T00:14:13.131Z,13.50
2023-11-01T00:19:14.554Z,10.30
2023-11-01T00:24:16.103Z,9.27
2023-11-01T00:29:17.630Z,9.23
2023-11-01T00:34:19.627Z,8.50
2023-11-01T00:39:21.223Z,13.18
2023-11-01T00:44:22.740Z,9.27
2023-11-01T00:49:24.259Z,11.65
2023-11-01T00:54:25.703Z,11.15
2023-11-01T00:59:27.176Z,15.85
2023-11-01T01:04:28.638Z,12.18
2023-11-01T01:09:30.146Z,12.85
2023-11-01T01:14:31.671Z,16.65
2023-11-01T01:19:33.173Z,13.10
2023-11-01T01:24:34.750Z,8.88
2023-11-01T01:29:36.124Z,12.40
2023-11-01T01:34:37.606Z,8.95
2023-11-01T01:39:39.122Z,10.48
2023-11-01T01:44:40.646Z,16.83
2023-11-01T01:49:45.722Z,16.02
2023-11-01T01:54:48.413Z,17.50
2023-11-01T01:59:50.071Z,16.05
2023-11-01T02:04:51.567Z,12.93
2023-11-01T02:09:52.997Z,15.05
2023-11-01T02:14:54.444Z,12.57
2023-11-01T02:19:56.227Z,13.50
2023-11-01T02:24:58.061Z,16.75
2023-11-01T02:29:59.567Z,15.90
2023-11-01T02:35:01.476Z,17.55
2023-11-01T02:40:04.469Z,13.88
2023-11-01T02:45:10.503Z,18.38
2023-11-01T02:50:13.449Z,17.48
2023-11-01T02:55:15.880Z,19.00
2023-11-01T03:00:21.190Z,17.35
2023-11-01T03:05:22.949Z,20.60
2023-11-01T03:10:24.812Z,21.30
2023-11-01T03:15:26.352Z,23.10
2023-11-01T03:20:27.853Z,21.75
2023-11-01T03:25:29.431Z,24.17
2023-11-01T03:30:30.842Z,26.75
2023-11-01T03:35:32.715Z,23.65
2023-11-01T03:40:34.319Z,26.70
2023-11-01T03:45:35.830Z,22.65
2023-11-01T03:50:37.290Z,23.42
2023-11-01T03:55:38.776Z,21.17
2023-11-01T04:00:40.203Z,20.50
2023-11-01T04:05:41.659Z,21.83
2023-11-01T04:10:43.193Z,18.67
2023-11-01T04:15:44.621Z,20.42
2023-11-01T04:20:46.162Z,23.55
2023-11-01T04:25:47.684Z,16.33
2023-11-01T04:30:49.163Z,18.05
2023-11-01T04:35:50.779Z,19.42
2023-11-01T04:40:52.234Z,16.48
2023-11-01T04:45:54.574Z,14.10
2023-11-01T04:50:56.188Z,15.77
2023-11-01T04:55:58.106Z,14.43
2023-11-01T05:00:59.905Z,16.70
2023-11-01T05:06:01.434Z,14.52
2023-11-01T05:11:03.019Z,17.10
2023-11-01T05:16:04.906Z,18.65
2023-11-01T05:21:06.378Z,13.68
2023-11-01T05:26:14.664Z,14.40
2023-11-01T05:31:16.131Z,14.50
2023-11-01T05:36:17.711Z,12.75
2023-11-01T05:41:19.427Z,13.25
2023-11-01T05:46:22.959Z,13.85
2023-11-01T05:51:24.462Z,12.38
2023-11-01T05:56:28.269Z,15.00
2023-11-01T06:01:29.867Z,13.23
2023-11-01T06:06:31.393Z,16.52
2023-11-01T06:11:33.244Z,15.77
2023-11-01T06:16:34.827Z,12.90
2023-11-01T06:21:37.660Z,15.32
2023-11-01T06:26:39.144Z,16.38
2023-11-01T06:31:40.573Z,11.98
2023-11-01T06:36:43.989Z,15.98
2023-11-01T06:41:45.473Z,13.55
2023-11-01T06:46:47.085Z,14.80
2023-11-01T06:51:48.655Z,11.57
2023-11-01T06:56:50.210Z,15.50
2023-11-01T07:01:52.699Z,11.90
2023-11-01T07:06:54.194Z,13.77
2023-11-01T07:11:55.810Z,13.48
2023-11-01T07:16:57.338Z,15.63
2023-11-01T07:21:58.854Z,14.75
2023-11-01T07:27:00.311Z,16.30
2023-11-01T07:32:01.894Z,14.82
2023-11-01T07:37:04.274Z,18.02
2023-11-01T07:42:06.386Z,17.90
2023-11-01T07:47:08.129Z,19.60
2023-11-01T07:52:10.390Z,22.83
2023-11-01T07:57:12.392Z,17.85
2023-11-01T08:02:14.387Z,22.77
2023-11-01T08:07:16.593Z,20.80
2023-11-01T08:12:18.575Z,18.77
2023-11-01T08:17:20.587Z,18.30
2023-11-01T08:22:22.202Z,22.95
2023-11-01T08:27:24.673Z,18.00
2023-11-01T08:32:26.289Z,14.77
2023-11-01T08:37:27.934Z,16.92
2023-11-01T08:42:30.711Z,16.83
2023-11-01T08:47:35.371Z,17.80
2023-11-01T08:52:36.909Z,17.33
2023-11-01T08:57:38.583Z,23.33
2023-11-01T09:02:40.068Z,18.60
2023-11-01T09:07:41.620Z,14.75
2023-11-01T09:12:43.156Z,14.50
2023-11-01T09:17:44.734Z,20.42
2023-11-01T09:22:46.792Z,15.35
2023-11-01T09:27:48.579Z,13.10
2023-11-01T09:32:50.139Z,14.55
2023-11-01T09:37:52.156Z,14.45
2023-11-01T09:42:54.525Z,12.93
2023-11-01T09:47:56.093Z,15.93
2023-11-01T09:52:57.615Z,12.43
2023-11-01T09:58:00.287Z,17.42
2023-11-01T10:03:02.401Z,16.80
2023-11-01T10:08:04.106Z,15.05
2023-11-01T10:13:05.960Z,15.98
2023-11-01T10:18:07.583Z,26.08
2023-11-01T10:23:09.104Z,18.58
2023-11-01T10:28:16.419Z,14.77
2023-11-01T10:33:20.446Z,18.85
2023-11-01T10:38:22.048Z,20.55
2023-11-01T10:43:25.331Z,15.38
2023-11-01T10:48:27.464Z,13.82
2023-11-01T10:53:29.176Z,16.10
2023-11-01T10:58:32.151Z,12.10
2023-11-01T11:03:52.818Z,18.20
2023-11-01T11:09:13.223Z,14.65
2023-11-01T11:14:33.761Z,10.00
2023-11-01T11:19:56.146Z,9.82
2023-11-01T11:24:59.115Z,10.10
2023-11-01T11:30:00.927Z,13.57
2023-11-01T11:35:31.733Z,18.95
2023-11-01T11:40:35.356Z,12.82
2023-11-01T11:45:36.940Z,13.82
2023-11-01T11:50:38.462Z,11.20
2023-11-01T11:55:40.325Z,12.35
2023-11-01T12:00:45.598Z,10.23
2023-11-01T12:05:47.154Z,14.07
2023-11-01T12:10:51.356Z,8.73
2023-11-01T12:15:52.853Z,8.98
2023-11-01T12:20:54.308Z,10.75
2023-11-01T12:25:56.232Z,9.43
2023-11-01T12:30:57.881Z,15.23
2023-11-01T12:35:59.340Z,9.70
2023-11-01T12:41:01.017Z,11.75
2023-11-01T12:46:02.835Z,12.50
2023-11-01T12:51:04.507Z,12.85
2023-11-01T12:56:06.165Z,10.68
2023-11-01T13:01:07.775Z,9.55
2023-11-01T13:06:11.584Z,16.60
2023-11-01T13:11:13.272Z,9.50
2023-11-01T13:16:15.638Z,11.10
2023-11-01T13:21:17.156Z,10.85
2023-11-01T13:26:19.808Z,11.27
2023-11-01T13:31:22.559Z,12.43
2023-11-01T13:36:24.069Z,11.00
2023-11-01T13:41:26.038Z,15.50
2023-11-01T13:46:27.473Z,10.00
2023-11-01T13:51:28.945Z,11.65
2023-11-01T13:56:30.519Z,7.72
2023-11-01T14:01:32.486Z,11.57
2023-11-01T14:06:33.983Z,15.88
2023-11-01T14:11:35.638Z,8.35
2023-11-01T14:16:37.152Z,11.60
2023-11-01T14:21:38.612Z,11.10
2023-11-01T14:26:40.766Z,9.20
2023-11-01T14:31:43.232Z,14.32
2023-11-01T14:36:45.018Z,8.35
2023-11-01T14:41:46.528Z,8.13
2023-11-01T14:46:48.124Z,9.77
2023-11-01T14:51:49.626Z,9.43
2023-11-01T14:56:51.231Z,11.52
2023-11-01T15:01:55.430Z,7.82
2023-11-01T15:06:57.148Z,11.45
2023-11-01T15:11:58.794Z,9.55
2023-11-01T15:17:00.320Z,9.43
2023-11-01T15:22:02.100Z,7.40
2023-11-01T15:27:05.447Z,9.10
2023-11-01T15:32:07.360Z,16.25
2023-11-01T15:37:09.167Z,9.93
2023-11-01T15:42:11.547Z,10.68
2023-11-01T15:47:13.324Z,9.07
2023-11-01T15:52:14.835Z,9.57
2023-11-01T15:57:18.295Z,7.88
2023-11-01T16:02:19.836Z,7.05
2023-11-01T16:07:21.988Z,11.27
2023-11-01T16:12:23.451Z,10.73
2023-11-01T16:17:24.918Z,8.80
2023-11-01T16:22:27.277Z,8.88
2023-11-01T16:27:28.827Z,12.40
2023-11-01T16:32:32.138Z,10.07
2023-11-01T16:37:35.098Z,10.07
2023-11-01T16:42:37.045Z,10.65
2023-11-01T16:47:38.894Z,8.48
2023-11-01T16:52:40.732Z,4.18
2023-11-01T16:57:42.201Z,6.38
2023-11-01T17:02:48.278Z,6.13
2023-11-01T17:07:52.518Z,7.57
2023-11-01T17:12:54.084Z,8.45
2023-11-01T17:17:58.405Z,7.63
2023-11-01T17:23:01.541Z,10.35
2023-11-01T17:28:03.059Z,9.57
2023-11-01T17:33:05.352Z,4.63
2023-11-01T17:38:33.288Z,6.53
2023-11-01T17:43:46.770Z,5.88
2023-11-01T17:48:48.481Z,8.45
2023-11-01T17:53:49.972Z,8.35
2023-11-01T17:58:55.063Z,7.70
2023-11-01T18:03:57.647Z,9.00
2023-11-01T18:09:02.904Z,6.85
2023-11-01T18:14:04.769Z,7.18
2023-11-01T18:19:06.486Z,9.73
2023-11-01T18:24:09.745Z,7.75
2023-11-01T18:29:11.916Z,9.05
2023-11-01T18:34:14.067Z,8.35
2023-11-01T18:39:20.063Z,9.73
2023-11-01T18:44:24.913Z,9.40
2023-11-01T18:49:26.407Z,9.15
2023-11-01T18:54:34.094Z,6.85
2023-11-01T18:59:35.845Z,8.25
2023-11-01T19:04:37.629Z,8.13
2023-11-01T19:09:39.252Z,9.77
2023-11-01T19:14:40.740Z,10.27
2023-11-01T19:19:43.387Z,7.85
2023-11-01T19:24:44.859Z,7.65
2023-11-01T19:29:47.142Z,11.88
2023-11-01T19:34:48.688Z,6.47
2023-11-01T19:39:50.137Z,9.57
2023-11-01T19:44:51.620Z,7.00
2023-11-01T19:49:56.577Z,6.90
2023-11-01T19:54:58.358Z,9.60
2023-11-01T19:59:59.937Z,8.13
2023-11-01T20:05:01.415Z,10.02
2023-11-01T20:10:03.801Z,9.00
2023-11-01T20:15:06.001Z,8.30
2023-11-01T20:20:09.044Z,10.52
2023-11-01T20:25:11.411Z,7.97
2023-11-01T20:30:14.217Z,10.07
2023-11-01T20:35:15.921Z,11.82
2023-11-01T20:40:17.553Z,6.95
2023-11-01T20:45:19.702Z,10.77
2023-11-01T20:50:21.539Z,7.68
2023-11-01T20:55:23.358Z,7.88
2023-11-01T21:00:25.761Z,8.75
2023-11-01T21:05:27.258Z,6.60
2023-11-01T21:10:30.210Z,6.72
2023-11-01T21:15:31.760Z,8.85
2023-11-01T21:20:33.179Z,10.35
2023-11-01T21:25:36.076Z,8.45
2023-11-01T21:30:37.823Z,8.88
2023-11-01T21:35:39.352Z,12.88
2023-11-01T21:40:40.858Z,10.90
2023-11-01T21:45:52.297Z,7.40
2023-11-01T21:51:03.498Z,9.27
2023-11-01T21:56:06.032Z,10.23
2023-11-01T22:01:07.782Z,10.23
2023-11-01T22:06:22.746Z,7.00
2023-11-01T22:11:24.563Z,10.00
2023-11-01T22:16:30.625Z,9.30
2023-11-01T22:21:33.572Z,8.82
2023-11-01T22:26:35.182Z,7.57
2023-11-01T22:31:52.646Z,8.38
2023-11-01T22:36:54.053Z,6.53
2023-11-01T22:41:56.835Z,11.50
2023-11-01T22:46:58.324Z,8.50
2023-11-01T22:52:01.827Z,11.93
2023-11-01T22:57:03.741Z,8.90
2023-11-01T23:02:07.453Z,9.80
2023-11-01T23:07:10.904Z,12.55
2023-11-01T23:12:13.466Z,8.85
2023-11-01T23:17:15.038Z,9.95
2023-11-01T23:22:16.700Z,12.02
2023-11-01T23:27:18.207Z,10.05
2023-11-01T23:32:21.216Z,10.55
2023-11-01T23:37:28.917Z,8.02
2023-11-01T23:42:34.371Z,6.20
2023-11-01T23:47:43.955Z,6.10
2023-11-01T23:52:45.535Z,8.77
2023-11-01T23:57:49.384Z,11.55
